createdAt,value
2018-02-16T00:00:04.131Z,1011.24
2018-02-16T00:01:03.784Z,1011.27
2018-02-16T00:02:03.743Z,1011.26
2018-02-16T00:03:03.697Z,1011.26
2018-02-16T00:04:03.654Z,1011.26
2018-02-16T00:05:03.604Z,1011.25
2018-02-16T00:06:03.560Z,1011.25
2018-02-16T00:07:03.816Z,1011.27
2018-02-16T00:08:03.469Z,1011.28
2018-02-16T00:09:03.429Z,1011.30
2018-02-16T00:10:03.378Z,1011.29
2018-02-16T00:11:03.333Z,1011.33
2018-02-16T00:12:03.287Z,1011.31
2018-02-16T00:13:03.544Z,1011.37
2018-02-16T00:14:03.199Z,1011.36
2018-02-16T00:15:03.156Z,1011.38
2018-02-16T00:16:03.106Z,1011.37
2018-02-16T00:17:03.063Z,1011.35
2018-02-16T00:18:03.015Z,1011.37
2018-02-16T00:19:03.270Z,1011.33
2018-02-16T00:20:02.927Z,1011.34
2018-02-16T00:21:02.888Z,1011.38
2018-02-16T00:22:02.840Z,1011.35
2018-02-16T00:23:02.789Z,1011.40
2018-02-16T00:24:02.743Z,1011.42
2018-02-16T00:25:03.001Z,1011.45
2018-02-16T00:26:02.654Z,1011.41
2018-02-16T00:27:02.658Z,1011.41
2018-02-16T00:28:02.564Z,1011.49
2018-02-16T00:29:02.518Z,1011.47
2018-02-16T00:30:02.473Z,1011.50
2018-02-16T00:31:02.728Z,1011.51
2018-02-16T00:32:02.380Z,1011.45
2018-02-16T00:33:02.388Z,1011.49
2018-02-16T00:34:02.291Z,1011.49
2018-02-16T00:35:02.247Z,1011.52
2018-02-16T00:36:02.201Z,1011.51
2018-02-16T00:37:02.454Z,1011.52
2018-02-16T00:38:02.111Z,1011.55
2018-02-16T00:39:02.115Z,1011.56
2018-02-16T00:40:02.026Z,1011.59
2018-02-16T00:41:01.974Z,1011.58
2018-02-16T00:42:01.927Z,1011.54
2018-02-16T00:43:02.233Z,1011.64
2018-02-16T00:44:01.839Z,1011.63
2018-02-16T00:45:01.793Z,1011.56
2018-02-16T00:46:01.752Z,1011.60
2018-02-16T00:47:01.701Z,1011.61
2018-02-16T00:48:01.657Z,1011.68
2018-02-16T00:49:01.617Z,1011.61
2018-02-16T00:50:02.117Z,1011.60
2018-02-16T00:51:01.520Z,1011.61
2018-02-16T00:52:01.474Z,1011.63
2018-02-16T00:53:01.427Z,1011.60
2018-02-16T00:54:01.392Z,1011.62
2018-02-16T00:55:01.336Z,1011.70
2018-02-16T00:56:01.342Z,1011.68
2018-02-16T00:57:01.547Z,1011.66
2018-02-16T00:59:01.155Z,1011.72
2018-02-16T01:00:01.109Z,1011.72
2018-02-16T01:01:01.065Z,1011.70
2018-02-16T01:02:01.025Z,1011.68
2018-02-16T01:03:00.974Z,1011.73
2018-02-16T01:04:01.228Z,1011.75
2018-02-16T01:05:00.909Z,1011.75
2018-02-16T01:06:00.838Z,1011.78
2018-02-16T01:07:00.792Z,1011.72
2018-02-16T01:08:00.747Z,1011.80
2018-02-16T01:09:00.702Z,1011.78
2018-02-16T01:10:00.660Z,1011.80
2018-02-16T01:11:00.912Z,1011.82
2018-02-16T01:12:00.567Z,1011.83
2018-02-16T01:13:00.521Z,1011.77
2018-02-16T01:14:00.475Z,1011.81
2018-02-16T01:15:00.431Z,1011.79
2018-02-16T01:16:00.382Z,1011.79
2018-02-16T01:17:00.338Z,1011.84
2018-02-16T01:18:00.594Z,1011.81
2018-02-16T01:19:00.247Z,1011.83
2018-02-16T01:20:00.202Z,1011.86
2018-02-16T01:21:00.160Z,1011.87
2018-02-16T01:22:00.112Z,1011.86
2018-02-16T01:23:00.068Z,1011.85
2018-02-16T01:24:00.321Z,1011.90
2018-02-16T01:24:59.974Z,1011.87
2018-02-16T01:25:59.930Z,1011.86
2018-02-16T01:26:59.932Z,1011.91
2018-02-16T01:27:59.838Z,1011.89
2018-02-16T01:28:59.794Z,1011.88
2018-02-16T01:30:00.065Z,1011.92
2018-02-16T01:30:59.699Z,1011.89
2018-02-16T01:31:59.655Z,1011.92
2018-02-16T01:32:59.669Z,1011.95
2018-02-16T01:33:59.564Z,1011.94
2018-02-16T01:34:59.516Z,1011.94
2018-02-16T01:35:59.771Z,1011.93
2018-02-16T01:36:59.425Z,1011.93
2018-02-16T01:37:59.383Z,1011.87
2018-02-16T01:38:59.385Z,1011.88
2018-02-16T01:39:59.290Z,1011.96
2018-02-16T01:40:59.245Z,1011.93
2018-02-16T01:41:59.497Z,1011.92
2018-02-16T01:42:59.151Z,1011.92
2018-02-16T01:43:59.102Z,1011.93
2018-02-16T01:44:59.056Z,1011.90
2018-02-16T01:45:59.011Z,1011.91
2018-02-16T01:46:58.965Z,1011.92
2018-02-16T01:47:59.222Z,1011.90
2018-02-16T01:48:58.873Z,1011.94
2018-02-16T01:49:58.827Z,1011.94
2018-02-16T01:50:58.780Z,1011.96
2018-02-16T01:51:58.736Z,1011.94
2018-02-16T01:52:58.689Z,1012.02
2018-02-16T01:53:58.943Z,1011.95
2018-02-16T01:54:58.593Z,1011.99
2018-02-16T01:55:58.548Z,1012.00
2018-02-16T01:56:58.503Z,1011.93
2018-02-16T01:57:58.457Z,1011.96
2018-02-16T01:58:58.413Z,1011.95
2018-02-16T01:59:58.363Z,1011.95
2018-02-16T02:00:58.617Z,1011.98
2018-02-16T02:01:58.273Z,1011.98
2018-02-16T02:02:58.222Z,1011.98
2018-02-16T02:03:58.184Z,1011.94
2018-02-16T02:04:58.186Z,1011.92
2018-02-16T02:05:58.084Z,1011.94
2018-02-16T02:06:58.044Z,1011.98
2018-02-16T02:07:58.289Z,1012.03
2018-02-16T02:08:57.945Z,1012.04
2018-02-16T02:09:57.896Z,1012.01
2018-02-16T02:10:57.902Z,1012.01
2018-02-16T02:11:57.805Z,1012.04
2018-02-16T02:12:57.759Z,1012.05
2018-02-16T02:13:57.714Z,1012.02
2018-02-16T02:14:57.963Z,1012.02
2018-02-16T02:15:57.617Z,1012.00
2018-02-16T02:16:57.631Z,1012.04
2018-02-16T02:17:57.525Z,1012.02
2018-02-16T02:18:57.532Z,1012.02
2018-02-16T02:19:57.431Z,1012.03
2018-02-16T02:20:57.385Z,1012.02
2018-02-16T02:21:57.643Z,1012.04
2018-02-16T02:22:57.290Z,1012.09
2018-02-16T02:23:57.243Z,1012.07
2018-02-16T02:24:57.197Z,1012.09
2018-02-16T02:25:57.150Z,1012.08
2018-02-16T02:26:57.103Z,1012.06
2018-02-16T02:27:57.056Z,1012.09
2018-02-16T02:28:57.310Z,1012.07
2018-02-16T02:29:56.963Z,1012.14
2018-02-16T02:30:56.916Z,1012.16
2018-02-16T02:31:56.872Z,1012.13
2018-02-16T02:32:56.871Z,1012.10
2018-02-16T02:33:56.772Z,1012.13
2018-02-16T02:34:57.025Z,1012.09
2018-02-16T02:35:56.678Z,1012.17
2018-02-16T02:36:56.638Z,1012.14
2018-02-16T02:37:56.586Z,1012.16
2018-02-16T02:38:56.588Z,1012.20
2018-02-16T02:39:56.490Z,1012.24
2018-02-16T02:40:56.745Z,1012.18
2018-02-16T02:41:56.395Z,1012.22
2018-02-16T02:42:56.347Z,1012.23
2018-02-16T02:43:56.303Z,1012.23
2018-02-16T02:44:56.255Z,1012.27
2018-02-16T02:45:56.210Z,1012.30
2018-02-16T02:46:56.461Z,1012.30
2018-02-16T02:47:56.114Z,1012.34
2018-02-16T02:48:56.067Z,1012.37
2018-02-16T02:49:56.018Z,1012.34
2018-02-16T02:50:55.973Z,1012.32
2018-02-16T02:51:55.924Z,1012.39
2018-02-16T02:52:56.178Z,1012.41
2018-02-16T02:53:55.831Z,1012.43
2018-02-16T02:54:55.783Z,1012.43
2018-02-16T02:55:55.738Z,1012.40
2018-02-16T02:56:55.695Z,1012.46
2018-02-16T02:57:55.641Z,1012.47
2018-02-16T02:58:55.896Z,1012.43
2018-02-16T02:59:55.550Z,1012.48
2018-02-16T03:00:55.501Z,1012.45
2018-02-16T03:01:55.454Z,1012.55
2018-02-16T03:02:55.409Z,1012.56
2018-02-16T03:03:55.360Z,1012.59
2018-02-16T03:04:55.611Z,1012.54
2018-02-16T03:05:55.264Z,1012.53
2018-02-16T03:06:55.216Z,1012.57
2018-02-16T03:07:55.174Z,1012.57
2018-02-16T03:08:55.122Z,1012.57
2018-02-16T03:09:55.074Z,1012.57
2018-02-16T03:10:55.028Z,1012.58
2018-02-16T03:11:55.284Z,1012.62
2018-02-16T03:12:54.935Z,1012.60
2018-02-16T03:13:54.885Z,1012.66
2018-02-16T03:14:54.894Z,1012.62
2018-02-16T03:15:54.789Z,1012.63
2018-02-16T03:16:54.744Z,1012.73
2018-02-16T03:17:54.695Z,1012.73
2018-02-16T03:18:54.948Z,1012.70
2018-02-16T03:19:54.606Z,1012.76
2018-02-16T03:20:54.604Z,1012.72
2018-02-16T03:21:54.507Z,1012.79
2018-02-16T03:22:54.459Z,1012.83
2018-02-16T03:23:54.410Z,1012.90
2018-02-16T03:24:54.361Z,1012.91
2018-02-16T03:25:54.614Z,1012.93
2018-02-16T03:26:54.317Z,1012.89
2018-02-16T03:27:54.220Z,1012.96
2018-02-16T03:28:54.171Z,1012.98
2018-02-16T03:29:54.125Z,1012.94
2018-02-16T03:30:54.080Z,1012.93
2018-02-16T03:31:54.029Z,1012.95
2018-02-16T03:32:54.283Z,1013.01
2018-02-16T03:33:53.936Z,1013.04
2018-02-16T03:34:53.886Z,1013.03
2018-02-16T03:35:53.839Z,1013.06
2018-02-16T03:36:53.799Z,1013.05
2018-02-16T03:37:53.746Z,1013.10
2018-02-16T03:38:53.697Z,1013.06
2018-02-16T03:39:53.949Z,1013.11
2018-02-16T03:40:53.601Z,1013.15
2018-02-16T03:41:53.554Z,1013.19
2018-02-16T03:42:53.554Z,1013.18
2018-02-16T03:43:53.456Z,1013.18
2018-02-16T03:44:53.409Z,1013.24
2018-02-16T03:45:53.663Z,1013.27
2018-02-16T03:46:53.314Z,1013.25
2018-02-16T03:47:53.266Z,1013.28
2018-02-16T03:48:53.268Z,1013.30
2018-02-16T03:49:53.172Z,1013.32
2018-02-16T03:50:53.123Z,1013.26
2018-02-16T03:51:53.374Z,1013.28
2018-02-16T03:52:53.027Z,1013.28
2018-02-16T03:53:52.979Z,1013.28
2018-02-16T03:54:52.930Z,1013.29
2018-02-16T03:55:52.884Z,1013.29
2018-02-16T03:56:52.835Z,1013.32
2018-02-16T03:57:53.090Z,1013.27
2018-02-16T03:58:52.793Z,1013.30
2018-02-16T03:59:52.692Z,1013.29
2018-02-16T04:00:52.647Z,1013.28
2018-02-16T04:01:52.605Z,1013.25
2018-02-16T04:02:52.549Z,1013.30
2018-02-16T04:03:52.803Z,1013.31
2018-02-16T04:04:52.456Z,1013.34
2018-02-16T04:05:52.408Z,1013.37
2018-02-16T04:06:52.359Z,1013.35
2018-02-16T04:07:52.311Z,1013.36
2018-02-16T04:08:52.264Z,1013.36
2018-02-16T04:09:52.519Z,1013.36
2018-02-16T04:10:52.220Z,1013.35
2018-02-16T04:11:52.122Z,1013.35
2018-02-16T04:12:52.074Z,1013.36
2018-02-16T04:13:52.028Z,1013.39
2018-02-16T04:14:51.979Z,1013.37
2018-02-16T04:15:51.931Z,1013.39
2018-02-16T04:16:52.183Z,1013.40
2018-02-16T04:17:51.889Z,1013.46
2018-02-16T04:18:51.788Z,1013.44
2018-02-16T04:19:51.740Z,1013.47
2018-02-16T04:20:51.746Z,1013.50
2018-02-16T04:21:51.646Z,1013.45
2018-02-16T04:22:51.599Z,1013.43
2018-02-16T04:23:51.851Z,1013.49
2018-02-16T04:24:51.503Z,1013.47
2018-02-16T04:25:51.458Z,1013.46
2018-02-16T04:26:51.587Z,1013.46
2018-02-16T04:27:51.362Z,1013.49
2018-02-16T04:28:51.313Z,1013.48
2018-02-16T04:29:51.271Z,1013.52
2018-02-16T04:30:51.519Z,1013.49
2018-02-16T04:31:51.173Z,1013.51
2018-02-16T04:32:51.124Z,1013.53
2018-02-16T04:33:51.077Z,1013.48
2018-02-16T04:34:51.030Z,1013.43
2018-02-16T04:35:50.983Z,1013.47
2018-02-16T04:36:50.933Z,1013.51
2018-02-16T04:37:51.187Z,1013.54
2018-02-16T04:38:50.839Z,1013.53
2018-02-16T04:39:50.790Z,1013.54
2018-02-16T04:40:50.745Z,1013.49
2018-02-16T04:41:50.704Z,1013.55
2018-02-16T04:42:50.648Z,1013.55
2018-02-16T04:43:50.604Z,1013.49
2018-02-16T04:44:50.853Z,1013.53
2018-02-16T04:45:50.506Z,1013.55
2018-02-16T04:46:50.460Z,1013.59
2018-02-16T04:47:50.471Z,1013.58
2018-02-16T04:48:50.366Z,1013.55
2018-02-16T04:49:50.368Z,1013.53
2018-02-16T04:50:50.270Z,1013.54
2018-02-16T04:51:50.522Z,1013.50
2018-02-16T04:52:50.180Z,1013.49
2018-02-16T04:53:50.134Z,1013.54
2018-02-16T04:54:50.079Z,1013.49
2018-02-16T04:55:50.034Z,1013.53
2018-02-16T04:56:49.984Z,1013.59
2018-02-16T04:58:49.891Z,1013.55
2018-02-16T04:59:49.842Z,1013.58
2018-02-16T05:00:49.796Z,1013.59
2018-02-16T05:01:49.748Z,1013.61
2018-02-16T05:02:49.704Z,1013.60
2018-02-16T05:03:49.953Z,1013.66
2018-02-16T05:04:49.606Z,1013.67
2018-02-16T05:05:49.562Z,1013.68
2018-02-16T05:06:49.511Z,1013.74
2018-02-16T05:07:49.471Z,1013.73
2018-02-16T05:08:49.418Z,1013.74
2018-02-16T05:09:49.668Z,1013.71
2018-02-16T05:10:49.321Z,1013.75
2018-02-16T05:11:49.274Z,1013.75
2018-02-16T05:12:49.227Z,1013.80
2018-02-16T05:13:49.181Z,1013.73
2018-02-16T05:14:49.133Z,1013.79
2018-02-16T05:15:49.384Z,1013.80
2018-02-16T05:16:49.040Z,1013.78
2018-02-16T05:17:48.997Z,1013.83
2018-02-16T05:18:48.943Z,1013.85
2018-02-16T05:19:48.896Z,1013.81
2018-02-16T05:20:48.848Z,1013.81
2018-02-16T05:21:49.104Z,1013.82
2018-02-16T05:22:48.754Z,1013.84
2018-02-16T05:23:48.707Z,1013.87
2018-02-16T05:24:48.662Z,1013.89
2018-02-16T05:25:48.614Z,1013.87
2018-02-16T05:26:48.565Z,1013.84
2018-02-16T05:27:48.515Z,1013.88
2018-02-16T05:28:48.769Z,1013.88
2018-02-16T05:29:48.423Z,1013.88
2018-02-16T05:30:48.373Z,1013.88
2018-02-16T05:31:48.326Z,1013.92
2018-02-16T05:32:48.286Z,1013.88
2018-02-16T05:33:48.234Z,1013.93
2018-02-16T05:35:48.441Z,1013.94
2018-02-16T05:36:48.223Z,1013.98
2018-02-16T05:37:49.349Z,1014.05
2018-02-16T05:38:48.794Z,1014.02
2018-02-16T05:39:48.867Z,1014.05
2018-02-16T05:40:48.177Z,1014.04
2018-02-16T05:41:48.616Z,1014.08
2018-02-16T05:42:48.795Z,1014.09
2018-02-16T05:43:47.977Z,1014.07
2018-02-16T05:44:48.565Z,1014.13
2018-02-16T05:45:48.067Z,1014.14
2018-02-16T05:46:49.671Z,1014.17
2018-02-16T05:47:47.567Z,1014.16
2018-02-16T05:48:47.677Z,1014.16
2018-02-16T05:49:47.774Z,1014.16
2018-02-16T05:50:47.432Z,1014.19
2018-02-16T05:51:47.376Z,1014.18
2018-02-16T05:52:47.331Z,1014.22
2018-02-16T05:53:47.281Z,1014.19
2018-02-16T05:54:47.234Z,1014.25
2018-02-16T05:55:47.187Z,1014.27
2018-02-16T05:56:47.439Z,1014.23
2018-02-16T05:57:47.094Z,1014.28
2018-02-16T05:58:47.051Z,1014.34
2018-02-16T05:59:46.997Z,1014.34
2018-02-16T06:00:46.949Z,1014.28
2018-02-16T06:01:46.901Z,1014.35
2018-02-16T06:02:46.855Z,1014.33
2018-02-16T06:03:47.107Z,1014.30
2018-02-16T06:04:46.757Z,1014.35
2018-02-16T06:05:46.715Z,1014.39
2018-02-16T06:06:46.666Z,1014.41
2018-02-16T06:07:46.615Z,1014.42
2018-02-16T06:08:46.574Z,1014.41
2018-02-16T06:09:46.824Z,1014.43
2018-02-16T06:10:46.473Z,1014.50
2018-02-16T06:11:46.426Z,1014.49
2018-02-16T06:12:46.381Z,1014.49
2018-02-16T06:13:46.332Z,1014.49
2018-02-16T06:14:46.285Z,1014.58
2018-02-16T06:15:46.536Z,1014.55
2018-02-16T06:16:46.188Z,1014.56
2018-02-16T06:17:46.140Z,1014.60
2018-02-16T06:18:46.145Z,1014.61
2018-02-16T06:19:46.058Z,1014.64
2018-02-16T06:20:46.001Z,1014.64
2018-02-16T06:21:46.258Z,1014.63
2018-02-16T06:22:45.904Z,1014.70
2018-02-16T06:23:45.854Z,1014.71
2018-02-16T06:24:45.957Z,1014.76
2018-02-16T06:25:45.769Z,1014.78
2018-02-16T06:26:45.725Z,1014.80
2018-02-16T06:27:45.962Z,1014.79
2018-02-16T06:28:45.618Z,1014.82
2018-02-16T06:29:45.570Z,1014.80
2018-02-16T06:30:45.621Z,1014.77
2018-02-16T06:31:45.476Z,1014.88
2018-02-16T06:32:45.433Z,1014.87
2018-02-16T06:33:45.683Z,1014.81
2018-02-16T06:34:45.332Z,1014.86
2018-02-16T06:35:45.299Z,1014.88
2018-02-16T06:36:45.234Z,1014.82
2018-02-16T06:37:45.191Z,1014.90
2018-02-16T06:38:45.147Z,1014.92
2018-02-16T06:39:45.096Z,1015.02
2018-02-16T06:40:45.348Z,1014.94
2018-02-16T06:41:44.997Z,1015.03
2018-02-16T06:42:44.948Z,1014.97
2018-02-16T06:43:44.907Z,1014.98
2018-02-16T06:44:44.854Z,1014.98
2018-02-16T06:45:44.807Z,1015.05
2018-02-16T06:46:44.761Z,1015.00
2018-02-16T06:47:45.020Z,1015.03
2018-02-16T06:48:44.682Z,1015.06
2018-02-16T06:49:44.615Z,1015.02
2018-02-16T06:50:44.568Z,1015.07
2018-02-16T06:51:44.519Z,1015.09
2018-02-16T06:52:44.473Z,1015.14
2018-02-16T06:53:44.426Z,1015.15
2018-02-16T06:54:44.684Z,1015.19
2018-02-16T06:55:44.331Z,1015.16
2018-02-16T06:56:44.331Z,1015.20
2018-02-16T06:57:44.291Z,1015.21
2018-02-16T06:58:44.198Z,1015.18
2018-02-16T06:59:44.142Z,1015.24
2018-02-16T07:00:44.140Z,1015.21
2018-02-16T07:01:44.046Z,1015.23
2018-02-16T07:02:44.000Z,1015.27
2018-02-16T07:03:43.948Z,1015.25
2018-02-16T07:04:43.905Z,1015.23
2018-02-16T07:05:43.862Z,1015.18
2018-02-16T07:06:43.812Z,1015.17
2018-02-16T07:07:44.063Z,1015.22
2018-02-16T07:08:43.711Z,1015.21
2018-02-16T07:09:43.665Z,1015.23
2018-02-16T07:10:43.618Z,1015.22
2018-02-16T07:11:43.571Z,1015.23
2018-02-16T07:12:43.530Z,1015.27
2018-02-16T07:13:43.775Z,1015.26
2018-02-16T07:14:43.428Z,1015.30
2018-02-16T07:15:43.380Z,1015.35
2018-02-16T07:16:43.337Z,1015.31
2018-02-16T07:17:43.285Z,1015.34
2018-02-16T07:18:43.240Z,1015.33
2018-02-16T07:19:43.490Z,1015.37
2018-02-16T07:20:43.146Z,1015.40
2018-02-16T07:21:43.097Z,1015.39
2018-02-16T07:22:43.049Z,1015.39
2018-02-16T07:23:43.003Z,1015.37
2018-02-16T07:24:42.954Z,1015.40
2018-02-16T07:25:43.207Z,1015.35
2018-02-16T07:26:42.861Z,1015.39
2018-02-16T07:27:42.815Z,1015.42
2018-02-16T07:28:42.767Z,1015.44
2018-02-16T07:29:42.720Z,1015.53
2018-02-16T07:30:42.673Z,1015.52
2018-02-16T07:31:42.924Z,1015.49
2018-02-16T07:32:42.581Z,1015.56
2018-02-16T07:33:42.535Z,1015.59
2018-02-16T07:34:42.484Z,1015.58
2018-02-16T07:35:42.435Z,1015.62
2018-02-16T07:36:42.438Z,1015.68
2018-02-16T07:37:42.652Z,1015.66
2018-02-16T07:38:42.299Z,1015.71
2018-02-16T07:39:42.258Z,1015.73
2018-02-16T07:40:42.212Z,1015.77
2018-02-16T07:41:42.164Z,1015.78
2018-02-16T07:42:42.110Z,1015.84
2018-02-16T07:43:42.364Z,1015.80
2018-02-16T07:44:42.019Z,1015.85
2018-02-16T07:45:41.975Z,1015.89
2018-02-16T07:46:41.928Z,1015.85
2018-02-16T07:47:41.916Z,1015.93
2018-02-16T07:48:41.838Z,1015.91
2018-02-16T07:49:41.804Z,1015.91
2018-02-16T07:50:42.049Z,1015.97
2018-02-16T07:51:41.705Z,1016.01
2018-02-16T07:52:41.657Z,1016.00
2018-02-16T07:53:41.678Z,1016.06
2018-02-16T07:54:41.618Z,1016.09
2018-02-16T07:55:41.532Z,1016.12
2018-02-16T07:56:41.483Z,1016.17
2018-02-16T07:57:41.737Z,1016.15
2018-02-16T07:58:41.393Z,1016.16
2018-02-16T07:59:41.572Z,1016.22
2018-02-16T08:00:41.312Z,1016.29
2018-02-16T08:01:41.264Z,1016.26
2018-02-16T08:02:41.223Z,1016.30
2018-02-16T08:03:41.182Z,1016.25
2018-02-16T08:04:41.436Z,1016.20
2018-02-16T08:05:41.097Z,1016.20
2018-02-16T08:06:41.057Z,1016.20
2018-02-16T08:07:41.014Z,1016.14
2018-02-16T08:08:40.973Z,1016.20
2018-02-16T08:09:40.929Z,1016.25
2018-02-16T08:10:40.941Z,1016.25
2018-02-16T08:11:41.140Z,1016.35
2018-02-16T08:12:40.801Z,1016.34
2018-02-16T08:13:40.813Z,1016.32
2018-02-16T08:14:40.716Z,1016.38
2018-02-16T08:15:40.674Z,1016.45
2018-02-16T08:16:40.632Z,1016.47
2018-02-16T08:17:40.593Z,1016.44
2018-02-16T08:18:40.854Z,1016.44
2018-02-16T08:19:40.507Z,1016.44
2018-02-16T08:20:40.466Z,1016.56
2018-02-16T08:21:40.424Z,1016.52
2018-02-16T08:22:40.434Z,1016.61
2018-02-16T08:23:40.393Z,1016.61
2018-02-16T08:24:40.603Z,1016.67
2018-02-16T08:25:40.262Z,1016.66
2018-02-16T08:26:40.219Z,1016.52
2018-02-16T08:27:40.228Z,1016.57
2018-02-16T08:28:40.216Z,1016.64
2018-02-16T08:29:40.099Z,1016.66
2018-02-16T08:30:40.408Z,1016.68
2018-02-16T08:31:40.026Z,1016.68
2018-02-16T08:32:39.977Z,1016.63
2018-02-16T08:33:39.936Z,1016.66
2018-02-16T08:34:39.901Z,1016.74
2018-02-16T08:35:39.955Z,1016.73
2018-02-16T08:36:40.127Z,1016.65
2018-02-16T08:37:39.785Z,1016.76
2018-02-16T08:38:39.783Z,1016.75
2018-02-16T08:39:39.692Z,1016.73
2018-02-16T08:40:39.705Z,1016.61
2018-02-16T08:41:39.612Z,1016.68
2018-02-16T08:42:39.922Z,1016.81
2018-02-16T08:43:39.581Z,1016.79
2018-02-16T08:44:39.543Z,1016.81
2018-02-16T08:45:39.503Z,1016.84
2018-02-16T08:46:39.411Z,1016.84
2018-02-16T08:47:39.426Z,1016.85
2018-02-16T08:48:39.631Z,1016.77
2018-02-16T08:49:39.291Z,1016.91
2018-02-16T08:50:39.303Z,1016.89
2018-02-16T08:51:39.217Z,1016.96
2018-02-16T08:52:39.173Z,1016.98
2018-02-16T08:53:39.132Z,1016.94
2018-02-16T08:54:39.395Z,1016.96
2018-02-16T08:55:39.056Z,1016.95
2018-02-16T08:56:39.016Z,1016.95
2018-02-16T08:57:39.026Z,1016.98
2018-02-16T08:58:38.936Z,1017.03
2018-02-16T08:59:38.901Z,1017.04
2018-02-16T09:00:38.860Z,1017.07
2018-02-16T09:01:39.123Z,1017.05
2018-02-16T09:02:38.784Z,1017.07
2018-02-16T09:03:38.796Z,1017.09
2018-02-16T09:04:38.710Z,1017.05
2018-02-16T09:05:38.666Z,1017.09
2018-02-16T09:06:38.625Z,1017.10
2018-02-16T09:07:38.640Z,1017.08
2018-02-16T09:08:38.855Z,1017.07
2018-02-16T09:09:38.511Z,1017.11
2018-02-16T09:10:38.473Z,1017.11
2018-02-16T09:11:38.437Z,1017.17
2018-02-16T09:12:38.397Z,1017.20
2018-02-16T09:13:38.363Z,1017.22
2018-02-16T09:14:38.323Z,1017.25
2018-02-16T09:15:38.589Z,1017.27
2018-02-16T09:16:38.246Z,1017.34
2018-02-16T09:17:38.209Z,1017.28
2018-02-16T09:18:38.172Z,1017.32
2018-02-16T09:19:38.132Z,1017.18
2018-02-16T09:20:38.102Z,1017.36
2018-02-16T09:21:38.067Z,1017.36
2018-02-16T09:22:38.318Z,1017.38
2018-02-16T09:23:38.031Z,1017.35
2018-02-16T09:24:37.950Z,1017.34
2018-02-16T09:25:37.908Z,1017.36
2018-02-16T09:26:37.875Z,1017.35
2018-02-16T09:27:37.883Z,1017.33
2018-02-16T09:28:37.801Z,1017.35
2018-02-16T09:29:38.067Z,1017.37
2018-02-16T09:30:38.883Z,1017.42
2018-02-16T09:31:37.751Z,1017.48
2018-02-16T09:32:37.649Z,1017.52
2018-02-16T09:33:37.663Z,1017.49
2018-02-16T09:34:37.576Z,1017.52
2018-02-16T09:35:37.537Z,1017.53
2018-02-16T09:36:37.809Z,1017.59
2018-02-16T09:37:37.465Z,1017.60
2018-02-16T09:38:37.483Z,1017.68
2018-02-16T09:39:37.394Z,1017.53
2018-02-16T09:40:37.408Z,1017.69
2018-02-16T09:41:37.318Z,1017.75
2018-02-16T09:42:37.583Z,1017.74
2018-02-16T09:43:37.294Z,1017.77
2018-02-16T09:44:37.207Z,1017.84
2018-02-16T09:45:37.227Z,1017.86
2018-02-16T09:46:37.184Z,1017.85
2018-02-16T09:47:37.147Z,1017.81
2018-02-16T09:48:37.361Z,1017.89
2018-02-16T09:49:37.026Z,1017.90
2018-02-16T09:50:36.990Z,1017.85
2018-02-16T09:51:36.954Z,1017.92
2018-02-16T09:52:36.916Z,1017.94
2018-02-16T09:53:36.926Z,1017.94
2018-02-16T09:54:37.148Z,1017.97
2018-02-16T09:55:36.861Z,1018.03
2018-02-16T09:56:36.854Z,1018.01
2018-02-16T09:57:36.734Z,1017.76
2018-02-16T09:58:36.749Z,1017.83
2018-02-16T09:59:36.662Z,1017.98
2018-02-16T10:00:36.984Z,1017.95
2018-02-16T10:01:36.690Z,1017.94
2018-02-16T10:02:36.554Z,1018.01
2018-02-16T10:03:36.517Z,1017.96
2018-02-16T10:04:36.485Z,1018.07
2018-02-16T10:05:36.446Z,1018.06
2018-02-16T10:06:36.708Z,1018.11
2018-02-16T10:07:36.373Z,1017.98
2018-02-16T10:08:36.337Z,1018.12
2018-02-16T10:09:36.304Z,1018.07
2018-02-16T10:10:36.270Z,1017.78
2018-02-16T10:11:36.236Z,1017.74
2018-02-16T10:12:36.205Z,1017.95
2018-02-16T10:13:36.468Z,1017.90
2018-02-16T10:14:36.139Z,1017.70
2018-02-16T10:15:36.093Z,1017.79
2018-02-16T10:16:36.107Z,1018.01
2018-02-16T10:17:36.021Z,1017.94
2018-02-16T10:18:35.982Z,1017.83
2018-02-16T10:19:35.946Z,1017.87
2018-02-16T10:20:36.214Z,1018.02
2018-02-16T10:21:35.876Z,1017.90
2018-02-16T10:22:35.845Z,1017.95
2018-02-16T10:23:35.863Z,1017.97
2018-02-16T10:24:35.772Z,1017.93
2018-02-16T10:25:35.784Z,1018.08
2018-02-16T10:26:35.744Z,1018.00
2018-02-16T10:27:35.955Z,1017.95
2018-02-16T10:28:35.670Z,1017.95
2018-02-16T10:29:35.582Z,1017.96
2018-02-16T10:30:35.597Z,1017.99
2018-02-16T10:31:35.559Z,1018.03
2018-02-16T10:32:35.468Z,1018.09
2018-02-16T10:33:35.436Z,1018.34
2018-02-16T10:34:35.699Z,1018.02
2018-02-16T10:35:35.403Z,1018.11
2018-02-16T10:36:35.364Z,1018.00
2018-02-16T10:37:35.279Z,1018.00
2018-02-16T10:38:35.238Z,1017.94
2018-02-16T10:39:35.198Z,1017.92
2018-02-16T10:40:35.156Z,1018.00
2018-02-16T10:41:35.423Z,1017.99
2018-02-16T10:42:35.081Z,1018.13
2018-02-16T10:43:35.038Z,1018.01
2018-02-16T10:44:34.998Z,1018.10
2018-02-16T10:45:35.031Z,1018.09
2018-02-16T10:46:34.969Z,1018.01
2018-02-16T10:47:34.985Z,1018.13
2018-02-16T10:48:35.146Z,1018.04
2018-02-16T10:49:34.797Z,1018.05
2018-02-16T10:50:34.753Z,1018.05
2018-02-16T10:51:34.714Z,1018.02
2018-02-16T10:52:34.678Z,1017.99
2018-02-16T10:53:34.633Z,1017.94
2018-02-16T10:54:34.892Z,1017.99
2018-02-16T10:55:34.605Z,1018.00
2018-02-16T10:56:34.560Z,1018.03
2018-02-16T10:57:34.468Z,1018.04
2018-02-16T10:58:34.479Z,1018.14
2018-02-16T10:59:34.388Z,1018.09
2018-02-16T11:00:34.745Z,1018.06
2018-02-16T11:01:34.356Z,1018.20
2018-02-16T11:02:34.262Z,1018.15
2018-02-16T11:03:34.275Z,1018.09
2018-02-16T11:04:34.237Z,1018.17
2018-02-16T11:05:34.189Z,1018.12
2018-02-16T11:06:34.403Z,1018.10
2018-02-16T11:07:34.055Z,1018.13
2018-02-16T11:08:34.073Z,1018.13
2018-02-16T11:09:34.022Z,1018.11
2018-02-16T11:10:33.954Z,1018.10
2018-02-16T11:11:33.890Z,1018.09
2018-02-16T11:12:34.153Z,1018.11
2018-02-16T11:13:33.959Z,1018.08
2018-02-16T11:14:33.822Z,1018.08
2018-02-16T11:15:33.729Z,1018.10
2018-02-16T11:16:33.738Z,1018.03
2018-02-16T11:17:33.655Z,1018.01
2018-02-16T11:18:33.907Z,1018.12
2018-02-16T11:19:33.630Z,1018.08
2018-02-16T11:20:33.515Z,1018.04
2018-02-16T11:21:33.523Z,1018.04
2018-02-16T11:22:33.431Z,1018.08
2018-02-16T11:23:33.494Z,1018.07
2018-02-16T11:24:33.698Z,1018.12
2018-02-16T11:25:33.380Z,1018.22
2018-02-16T11:26:33.466Z,1018.12
2018-02-16T11:27:33.226Z,1018.16
2018-02-16T11:28:33.248Z,1018.08
2018-02-16T11:29:33.190Z,1018.11
2018-02-16T11:30:33.095Z,1018.12
2018-02-16T11:31:33.404Z,1018.16
2018-02-16T11:32:33.013Z,1018.14
2018-02-16T11:33:33.131Z,1018.11
2018-02-16T11:34:32.982Z,1018.26
2018-02-16T11:35:32.889Z,1018.35
2018-02-16T11:36:32.898Z,1018.42
2018-02-16T11:37:32.802Z,1018.34
2018-02-16T11:38:33.117Z,1018.29
2018-02-16T11:39:33.087Z,1018.30
2018-02-16T11:40:32.682Z,1018.24
2018-02-16T11:41:32.691Z,1018.29
2018-02-16T11:42:32.612Z,1018.29
2018-02-16T11:43:32.715Z,1018.34
2018-02-16T11:44:32.522Z,1018.35
2018-02-16T11:45:32.781Z,1018.26
2018-02-16T11:46:32.440Z,1018.30
2018-02-16T11:47:32.411Z,1018.28
2018-02-16T11:48:32.407Z,1018.30
2018-02-16T11:49:32.366Z,1018.26
2018-02-16T11:50:32.274Z,1018.35
2018-02-16T11:51:32.285Z,1018.34
2018-02-16T11:52:32.495Z,1018.35
2018-02-16T11:53:32.206Z,1018.31
2018-02-16T11:54:32.171Z,1018.35
2018-02-16T11:55:32.090Z,1018.36
2018-02-16T11:56:32.080Z,1018.33
2018-02-16T11:57:31.990Z,1018.42
2018-02-16T11:58:32.016Z,1018.42
2018-02-16T11:59:32.257Z,1018.38
2018-02-16T12:00:31.866Z,1018.36
2018-02-16T12:01:31.825Z,1018.39
2018-02-16T12:02:31.787Z,1018.39
2018-02-16T12:03:31.791Z,1018.36
2018-02-16T12:05:31.662Z,1018.40
2018-02-16T12:06:31.916Z,1018.46
2018-02-16T12:07:31.576Z,1018.49
2018-02-16T12:08:31.535Z,1018.55